Terminal Aerodrome Forecast
Issued by NWS

Home | Current Version | Previous Version | Text Only | Print | Product List | Glossary On
Versions: 1 2 3 4 5 6 7 8 9 10 11 12 13 14 15 16 17 18 19 20 21 22 23 24 25 26
196
FTAK31 PANC 281122
TAFAAQ
TAF
PAAQ 281122Z 2812/2912 15005KT 3SM -SN SCT015 OVC025
      TEMPO 2812/2815 1SM -SN OVC015
     FM281700 VRB03KT P6SM -SHSN SCT025 BKN040
     FM290000 35007KT 4SM -SN SCT015 OVC030
     FM290600 05005KT 6SM -SHSN SCT030 BKN050=

USA.gov is the U.S. government's official web portal to all federal, state and local government web resources and services.